sensor_id;sensor_type;location;lat;lon;timestamp;noise_LAeq;noise_LA_min;noise_LA_max;noise_LA01;noise_LA95
77133;Laerm;26708;50.304;19.028;2023-01-30T00:02:02;42.00;38.02;51.38;;
77133;Laerm;26708;50.304;19.028;2023-01-30T00:04:09;41.48;37.93;53.15;;
77133;Laerm;26708;50.304;19.028;2023-01-30T00:06:15;51.09;38.60;69.99;;
77133;Laerm;26708;50.304;19.028;2023-01-30T00:08:24;43.09;38.45;53.15;;
77133;Laerm;26708;50.304;19.028;2023-01-30T00:10:30;41.13;38.34;45.13;;
77133;Laerm;26708;50.304;19.028;2023-01-30T00:12:35;42.57;38.12;53.62;;
77133;Laerm;26708;50.304;19.028;2023-01-30T00:14:43;41.16;38.09;48.47;;
77133;Laerm;26708;50.304;19.028;2023-01-30T00:16:49;41.10;38.24;46.95;;
77133;Laerm;26708;50.304;19.028;2023-01-30T00:18:54;49.67;38.28;67.42;;
77133;Laerm;26708;50.304;19.028;2023-01-30T00:21:01;40.90;37.70;48.06;;
77133;Laerm;26708;50.304;19.028;2023-01-30T00:23:10;41.94;38.76;48.21;;
77133;Laerm;26708;50.304;19.028;2023-01-30T00:25:17;42.18;38.53;52.42;;
77133;Laerm;26708;50.304;19.028;2023-01-30T00:27:36;49.51;38.93;66.68;;
77133;Laerm;26708;50.304;19.028;2023-01-30T00:29:45;41.36;37.71;47.97;;
77133;Laerm;26708;50.304;19.028;2023-01-30T00:31:50;41.14;38.09;46.30;;
77133;Laerm;26708;50.304;19.028;2023-01-30T00:33:58;41.19;37.49;48.19;;
77133;Laerm;26708;50.304;19.028;2023-01-30T00:36:12;41.34;37.91;52.91;;
77133;Laerm;26708;50.304;19.028;2023-01-30T00:38:18;40.74;37.70;44.64;;
77133;Laerm;26708;50.304;19.028;2023-01-30T00:40:25;41.12;38.01;49.95;;
77133;Laerm;26708;50.304;19.028;2023-01-30T00:45:12;41.23;38.13;49.34;;
77133;Laerm;26708;50.304;19.028;2023-01-30T00:47:30;41.19;38.34;46.89;;
77133;Laerm;26708;50.304;19.028;2023-01-30T00:49:37;41.61;38.21;50.46;;
77133;Laerm;26708;50.304;19.028;2023-01-30T00:51:44;43.31;38.39;61.43;;
77133;Laerm;26708;50.304;19.028;2023-01-30T00:53:49;53.31;39.01;71.49;;
77133;Laerm;26708;50.304;19.028;2023-01-30T00:55:55;41.72;38.08;46.49;;
77133;Laerm;26708;50.304;19.028;2023-01-30T00:58:00;40.88;37.43;44.71;;
77133;Laerm;26708;50.304;19.028;2023-01-30T01:00:12;40.97;38.19;47.58;;
77133;Laerm;26708;50.304;19.028;2023-01-30T01:02:19;41.18;38.50;47.70;;
77133;Laerm;26708;50.304;19.028;2023-01-30T01:04:33;41.99;38.60;53.83;;
77133;Laerm;26708;50.304;19.028;2023-01-30T01:07:22;40.73;38.01;45.03;;
77133;Laerm;26708;50.304;19.028;2023-01-30T01:09:28;41.39;37.93;45.60;;
77133;Laerm;26708;50.304;19.028;2023-01-30T01:11:33;40.83;38.11;46.67;;
77133;Laerm;26708;50.304;19.028;2023-01-30T01:13:38;41.16;38.11;47.68;;
77133;Laerm;26708;50.304;19.028;2023-01-30T01:15:46;41.75;38.25;49.57;;
77133;Laerm;26708;50.304;19.028;2023-01-30T01:17:53;41.65;38.52;57.09;;
77133;Laerm;26708;50.304;19.028;2023-01-30T01:19:58;42.85;38.71;50.20;;
77133;Laerm;26708;50.304;19.028;2023-01-30T01:22:05;40.96;37.77;44.70;;
77133;Laerm;26708;50.304;19.028;2023-01-30T01:24:13;40.95;38.15;44.87;;
77133;Laerm;26708;50.304;19.028;2023-01-30T01:26:26;40.75;37.74;44.89;;
77133;Laerm;26708;50.304;19.028;2023-01-30T01:28:32;40.77;37.30;44.74;;
77133;Laerm;26708;50.304;19.028;2023-01-30T01:30:37;41.28;38.12;48.70;;
77133;Laerm;26708;50.304;19.028;2023-01-30T01:32:50;41.09;38.16;45.04;;
77133;Laerm;26708;50.304;19.028;2023-01-30T01:34:56;41.30;38.27;48.38;;
77133;Laerm;26708;50.304;19.028;2023-01-30T01:37:01;41.08;38.04;45.62;;
77133;Laerm;26708;50.304;19.028;2023-01-30T01:39:06;40.83;37.88;46.11;;
77133;Laerm;26708;50.304;19.028;2023-01-30T01:41:27;43.14;37.84;55.52;;
77133;Laerm;26708;50.304;19.028;2023-01-30T01:43:33;41.97;38.27;50.57;;
77133;Laerm;26708;50.304;19.028;2023-01-30T01:45:38;41.20;38.02;46.67;;
77133;Laerm;26708;50.304;19.028;2023-01-30T01:47:58;41.64;37.25;50.58;;
77133;Laerm;26708;50.304;19.028;2023-01-30T01:50:11;41.06;38.39;47.90;;
77133;Laerm;26708;50.304;19.028;2023-01-30T01:52:18;43.57;39.51;51.02;;
77133;Laerm;26708;50.304;19.028;2023-01-30T01:54:34;42.07;38.65;46.27;;
77133;Laerm;26708;50.304;19.028;2023-01-30T01:56:48;41.25;38.50;45.39;;
77133;Laerm;26708;50.304;19.028;2023-01-30T01:59:04;41.11;38.34;46.12;;
77133;Laerm;26708;50.304;19.028;2023-01-30T02:01:14;41.34;38.08;48.66;;
77133;Laerm;26708;50.304;19.028;2023-01-30T02:03:29;43.34;38.61;55.22;;
77133;Laerm;26708;50.304;19.028;2023-01-30T02:05:44;41.48;38.46;45.48;;
77133;Laerm;26708;50.304;19.028;2023-01-30T02:08:00;40.93;37.67;45.40;;
77133;Laerm;26708;50.304;19.028;2023-01-30T02:10:13;40.94;38.30;44.94;;
77133;Laerm;26708;50.304;19.028;2023-01-30T02:12:19;41.25;38.32;46.16;;
77133;Laerm;26708;50.304;19.028;2023-01-30T02:14:25;48.94;38.86;63.87;;
77133;Laerm;26708;50.304;19.028;2023-01-30T02:16:30;40.97;38.38;45.64;;
77133;Laerm;26708;50.304;19.028;2023-01-30T02:18:46;41.43;37.78;45.52;;
77133;Laerm;26708;50.304;19.028;2023-01-30T02:21:39;42.14;38.63;56.77;;
77133;Laerm;26708;50.304;19.028;2023-01-30T02:30:15;41.89;38.37;47.29;;
77133;Laerm;26708;50.304;19.028;2023-01-30T02:32:40;41.50;38.05;52.67;;
77133;Laerm;26708;50.304;19.028;2023-01-30T02:35:04;49.77;38.76;72.85;;
77133;Laerm;26708;50.304;19.028;2023-01-30T02:38:02;41.76;38.21;47.32;;
77133;Laerm;26708;50.304;19.028;2023-01-30T02:40:48;41.77;38.10;47.98;;
77133;Laerm;26708;50.304;19.028;2023-01-30T02:44:07;42.30;38.45;52.70;;
77133;Laerm;26708;50.304;19.028;2023-01-30T02:46:29;42.52;38.67;51.12;;
77133;Laerm;26708;50.304;19.028;2023-01-30T02:49:40;41.29;38.23;49.24;;
77133;Laerm;26708;50.304;19.028;2023-01-30T02:52:26;43.08;38.28;50.58;;
77133;Laerm;26708;50.304;19.028;2023-01-30T02:55:08;45.97;38.65;64.43;;
77133;Laerm;26708;50.304;19.028;2023-01-30T02:57:21;42.27;38.64;51.97;;
77133;Laerm;26708;50.304;19.028;2023-01-30T02:59:39;42.43;38.88;53.93;;
77133;Laerm;26708;50.304;19.028;2023-01-30T03:02:17;42.98;38.92;57.22;;
77133;Laerm;26708;50.304;19.028;2023-01-30T03:05:00;41.73;38.48;47.26;;
77133;Laerm;26708;50.304;19.028;2023-01-30T03:07:28;42.00;38.82;51.26;;
77133;Laerm;26708;50.304;19.028;2023-01-30T03:09:57;43.20;39.50;49.34;;
77133;Laerm;26708;50.304;19.028;2023-01-30T03:12:21;54.32;38.83;74.93;;
77133;Laerm;26708;50.304;19.028;2023-01-30T03:14:41;42.37;38.35;53.89;;
77133;Laerm;26708;50.304;19.028;2023-01-30T03:16:56;42.21;38.37;49.00;;
77133;Laerm;26708;50.304;19.028;2023-01-30T03:19:11;42.19;38.80;47.64;;
77133;Laerm;26708;50.304;19.028;2023-01-30T03:21:22;41.92;38.66;46.48;;
77133;Laerm;26708;50.304;19.028;2023-01-30T03:23:28;43.12;38.74;52.37;;
77133;Laerm;26708;50.304;19.028;2023-01-30T03:25:38;42.23;38.21;46.70;;
77133;Laerm;26708;50.304;19.028;2023-01-30T03:27:47;43.89;39.04;54.53;;
77133;Laerm;26708;50.304;19.028;2023-01-30T03:29:55;42.51;38.59;47.64;;
77133;Laerm;26708;50.304;19.028;2023-01-30T03:32:00;48.90;40.59;68.68;;
77133;Laerm;26708;50.304;19.028;2023-01-30T03:34:05;44.51;39.38;57.22;;
77133;Laerm;26708;50.304;19.028;2023-01-30T03:36:11;44.96;38.92;67.08;;
77133;Laerm;26708;50.304;19.028;2023-01-30T03:38:19;45.91;39.96;55.00;;
77133;Laerm;26708;50.304;19.028;2023-01-30T03:40:25;53.91;39.73;70.62;;
77133;Laerm;26708;50.304;19.028;2023-01-30T03:42:32;47.28;41.93;54.82;;
77133;Laerm;26708;50.304;19.028;2023-01-30T03:44:39;45.26;39.10;60.48;;
77133;Laerm;26708;50.304;19.028;2023-01-30T03:46:52;44.02;39.29;51.59;;
77133;Laerm;26708;50.304;19.028;2023-01-30T03:49:03;43.00;39.51;52.32;;
77133;Laerm;26708;50.304;19.028;2023-01-30T03:51:10;44.34;39.77;51.50;;
77133;Laerm;26708;50.304;19.028;2023-01-30T03:53:18;44.69;40.41;50.75;;
77133;Laerm;26708;50.304;19.028;2023-01-30T03:55:27;44.08;40.32;52.24;;
77133;Laerm;26708;50.304;19.028;2023-01-30T03:57:33;47.90;40.73;62.52;;
77133;Laerm;26708;50.304;19.028;2023-01-30T03:59:41;44.42;40.00;53.07;;
77133;Laerm;26708;50.304;19.028;2023-01-30T04:01:50;44.93;40.57;52.25;;
77133;Laerm;26708;50.304;19.028;2023-01-30T04:04:10;51.53;39.93;70.44;;
77133;Laerm;26708;50.304;19.028;2023-01-30T04:06:23;46.28;41.04;54.46;;
77133;Laerm;26708;50.304;19.028;2023-01-30T04:08:32;47.41;40.10;61.28;;
77133;Laerm;26708;50.304;19.028;2023-01-30T04:10:40;50.62;39.73;68.77;;
77133;Laerm;26708;50.304;19.028;2023-01-30T04:12:46;47.92;40.67;63.00;;
77133;Laerm;26708;50.304;19.028;2023-01-30T04:14:55;46.59;40.93;55.21;;
77133;Laerm;26708;50.304;19.028;2023-01-30T04:17:24;55.24;41.38;72.82;;
77133;Laerm;26708;50.304;19.028;2023-01-30T04:19:47;47.32;41.44;56.70;;
77133;Laerm;26708;50.304;19.028;2023-01-30T04:21:58;47.17;41.56;65.27;;
77133;Laerm;26708;50.304;19.028;2023-01-30T04:24:08;55.49;42.12;72.07;;
77133;Laerm;26708;50.304;19.028;2023-01-30T04:26:15;45.96;41.38;59.00;;
77133;Laerm;26708;50.304;19.028;2023-01-30T04:28:35;50.48;40.71;67.70;;
77133;Laerm;26708;50.304;19.028;2023-01-30T04:30:40;49.26;41.49;65.20;;
77133;Laerm;26708;50.304;19.028;2023-01-30T04:33:05;47.38;42.06;57.30;;
77133;Laerm;26708;50.304;19.028;2023-01-30T04:35:13;52.86;41.96;70.16;;
77133;Laerm;26708;50.304;19.028;2023-01-30T04:37:20;48.48;43.81;55.03;;
77133;Laerm;26708;50.304;19.028;2023-01-30T04:39:29;54.55;45.03;67.19;;
77133;Laerm;26708;50.304;19.028;2023-01-30T04:41:41;58.02;47.09;73.09;;
77133;Laerm;26708;50.304;19.028;2023-01-30T04:44:39;66.44;44.48;93.26;;
77133;Laerm;26708;50.304;19.028;2023-01-30T04:47:06;52.44;41.45;68.28;;
77133;Laerm;26708;50.304;19.028;2023-01-30T04:49:19;51.69;43.13;68.55;;
77133;Laerm;26708;50.304;19.028;2023-01-30T04:52:00;51.94;42.22;66.02;;
77133;Laerm;26708;50.304;19.028;2023-01-30T04:59:09;49.29;41.59;64.57;;
77133;Laerm;26708;50.304;19.028;2023-01-30T05:02:19;53.17;41.02;67.78;;
77133;Laerm;26708;50.304;19.028;2023-01-30T05:11:17;52.14;40.83;71.37;;
77133;Laerm;26708;50.304;19.028;2023-01-30T05:14:53;53.41;41.35;68.36;;
77133;Laerm;26708;50.304;19.028;2023-01-30T05:17:27;50.33;43.39;66.97;;
77133;Laerm;26708;50.304;19.028;2023-01-30T05:20:32;52.49;42.20;68.79;;
77133;Laerm;26708;50.304;19.028;2023-01-30T05:23:15;55.74;42.93;69.84;;
77133;Laerm;26708;50.304;19.028;2023-01-30T05:25:50;54.45;42.16;69.43;;
77133;Laerm;26708;50.304;19.028;2023-01-30T05:28:07;54.17;43.43;66.38;;
77133;Laerm;26708;50.304;19.028;2023-01-30T05:30:43;55.22;42.83;67.71;;
77133;Laerm;26708;50.304;19.028;2023-01-30T05:32:57;53.03;43.62;66.30;;
77133;Laerm;26708;50.304;19.028;2023-01-30T05:35:06;56.53;43.83;68.83;;
77133;Laerm;26708;50.304;19.028;2023-01-30T05:37:26;53.59;43.54;69.38;;
77133;Laerm;26708;50.304;19.028;2023-01-30T05:39:45;52.86;43.72;65.69;;
77133;Laerm;26708;50.304;19.028;2023-01-30T05:41:52;57.63;44.35;71.53;;
77133;Laerm;26708;50.304;19.028;2023-01-30T05:43:56;52.72;43.95;77.43;;
77133;Laerm;26708;50.304;19.028;2023-01-30T05:46:06;53.91;44.94;67.52;;
77133;Laerm;26708;50.304;19.028;2023-01-30T05:48:12;56.28;46.25;67.79;;
77133;Laerm;26708;50.304;19.028;2023-01-30T05:50:17;58.32;45.89;71.81;;
77133;Laerm;26708;50.304;19.028;2023-01-30T05:52:22;53.08;44.97;68.00;;
77133;Laerm;26708;50.304;19.028;2023-01-30T05:54:28;53.45;44.58;68.40;;
77133;Laerm;26708;50.304;19.028;2023-01-30T05:56:49;50.39;44.48;63.41;;
77133;Laerm;26708;50.304;19.028;2023-01-30T05:59:01;56.38;44.43;69.30;;
77133;Laerm;26708;50.304;19.028;2023-01-30T06:01:28;57.01;45.84;69.78;;
77133;Laerm;26708;50.304;19.028;2023-01-30T06:04:21;59.09;44.49;71.27;;
77133;Laerm;26708;50.304;19.028;2023-01-30T06:07:18;56.21;43.20;71.19;;
77133;Laerm;26708;50.304;19.028;2023-01-30T06:09:29;55.91;45.15;67.68;;
77133;Laerm;26708;50.304;19.028;2023-01-30T06:14:35;57.04;43.30;70.44;;
77133;Laerm;26708;50.304;19.028;2023-01-30T06:16:55;53.76;43.16;69.46;;
77133;Laerm;26708;50.304;19.028;2023-01-30T06:19:20;56.23;45.53;70.30;;
77133;Laerm;26708;50.304;19.028;2023-01-30T06:22:09;58.60;44.70;71.47;;
77133;Laerm;26708;50.304;19.028;2023-01-30T06:24:44;56.69;44.08;68.89;;
77133;Laerm;26708;50.304;19.028;2023-01-30T06:27:13;54.52;43.57;69.93;;
77133;Laerm;26708;50.304;19.028;2023-01-30T06:29:20;55.35;44.05;70.13;;
77133;Laerm;26708;50.304;19.028;2023-01-30T06:31:28;55.55;44.81;68.26;;
77133;Laerm;26708;50.304;19.028;2023-01-30T06:33:43;56.80;44.23;69.10;;
77133;Laerm;26708;50.304;19.028;2023-01-30T06:35:51;56.39;44.52;68.41;;
77133;Laerm;26708;50.304;19.028;2023-01-30T06:37:55;56.08;44.84;68.86;;
77133;Laerm;26708;50.304;19.028;2023-01-30T06:40:10;57.02;44.71;68.28;;
77133;Laerm;26708;50.304;19.028;2023-01-30T06:42:27;50.49;44.09;69.52;;
77133;Laerm;26708;50.304;19.028;2023-01-30T06:44:42;58.14;43.67;73.97;;
77133;Laerm;26708;50.304;19.028;2023-01-30T06:46:56;53.09;43.42;68.47;;
77133;Laerm;26708;50.304;19.028;2023-01-30T06:49:06;56.34;44.52;70.16;;
77133;Laerm;26708;50.304;19.028;2023-01-30T06:51:19;57.64;44.48;70.95;;
77133;Laerm;26708;50.304;19.028;2023-01-30T06:53:45;58.44;45.63;72.42;;
77133;Laerm;26708;50.304;19.028;2023-01-30T06:56:03;60.48;45.38;71.15;;
77133;Laerm;26708;50.304;19.028;2023-01-30T06:58:14;58.28;45.57;71.94;;
77133;Laerm;26708;50.304;19.028;2023-01-30T07:00:55;58.02;45.15;72.61;;
77133;Laerm;26708;50.304;19.028;2023-01-30T07:03:48;60.54;46.04;83.11;;
77133;Laerm;26708;50.304;19.028;2023-01-30T07:06:22;56.34;47.03;71.80;;
77133;Laerm;26708;50.304;19.028;2023-01-30T07:08:39;56.86;46.39;76.62;;
77133;Laerm;26708;50.304;19.028;2023-01-30T07:14:28;57.51;44.43;73.48;;
77133;Laerm;26708;50.304;19.028;2023-01-30T07:16:54;55.04;45.22;68.19;;
77133;Laerm;26708;50.304;19.028;2023-01-30T07:19:11;59.66;47.60;69.34;;
77133;Laerm;26708;50.304;19.028;2023-01-30T07:21:24;59.86;45.71;77.41;;
77133;Laerm;26708;50.304;19.028;2023-01-30T07:26:28;58.57;45.20;73.24;;
77133;Laerm;26708;50.304;19.028;2023-01-30T07:33:25;54.43;43.48;69.55;;
77133;Laerm;26708;50.304;19.028;2023-01-30T07:35:49;56.70;44.81;72.36;;
77133;Laerm;26708;50.304;19.028;2023-01-30T07:39:01;57.04;43.76;69.38;;
77133;Laerm;26708;50.304;19.028;2023-01-30T07:41:35;57.28;43.57;72.72;;
77133;Laerm;26708;50.304;19.028;2023-01-30T07:46:56;59.09;45.76;72.71;;
77133;Laerm;26708;50.304;19.028;2023-01-30T07:49:03;55.56;43.14;70.11;;
77133;Laerm;26708;50.304;19.028;2023-01-30T07:51:13;57.11;44.62;70.06;;
77133;Laerm;26708;50.304;19.028;2023-01-30T07:53:31;58.95;45.13;73.88;;
77133;Laerm;26708;50.304;19.028;2023-01-30T07:55:41;53.13;44.01;68.58;;
77133;Laerm;26708;50.304;19.028;2023-01-30T07:57:48;56.22;44.63;70.95;;
77133;Laerm;26708;50.304;19.028;2023-01-30T08:00:31;55.86;42.32;69.79;;
77133;Laerm;26708;50.304;19.028;2023-01-30T08:03:00;58.54;45.07;71.57;;
77133;Laerm;26708;50.304;19.028;2023-01-30T08:09:23;59.15;43.61;84.97;;
77133;Laerm;26708;50.304;19.028;2023-01-30T08:14:45;57.19;44.01;72.74;;
77133;Laerm;26708;50.304;19.028;2023-01-30T08:16:51;59.52;44.63;72.82;;
77133;Laerm;26708;50.304;19.028;2023-01-30T08:18:56;59.05;43.80;73.34;;
77133;Laerm;26708;50.304;19.028;2023-01-30T08:21:04;59.63;45.00;71.44;;
77133;Laerm;26708;50.304;19.028;2023-01-30T08:23:10;59.92;45.62;74.22;;
77133;Laerm;26708;50.304;19.028;2023-01-30T08:25:17;55.81;44.54;70.15;;
77133;Laerm;26708;50.304;19.028;2023-01-30T08:27:27;58.42;45.60;69.92;;
77133;Laerm;26708;50.304;19.028;2023-01-30T08:29:55;57.39;46.59;70.26;;
77133;Laerm;26708;50.304;19.028;2023-01-30T08:32:13;55.08;45.12;70.23;;
77133;Laerm;26708;50.304;19.028;2023-01-30T08:34:18;56.38;44.83;70.53;;
77133;Laerm;26708;50.304;19.028;2023-01-30T08:36:27;57.75;44.01;69.06;;
77133;Laerm;26708;50.304;19.028;2023-01-30T08:41:18;55.97;44.24;70.93;;
77133;Laerm;26708;50.304;19.028;2023-01-30T08:48:24;58.46;46.29;71.02;;
77133;Laerm;26708;50.304;19.028;2023-01-30T08:51:30;58.57;46.61;74.85;;
77133;Laerm;26708;50.304;19.028;2023-01-30T08:59:34;59.96;44.21;72.09;;
77133;Laerm;26708;50.304;19.028;2023-01-30T09:04:50;57.71;46.08;69.35;;
77133;Laerm;26708;50.304;19.028;2023-01-30T09:09:48;56.53;44.29;69.55;;
77133;Laerm;26708;50.304;19.028;2023-01-30T09:15:20;58.22;45.60;69.54;;
77133;Laerm;26708;50.304;19.028;2023-01-30T09:17:33;67.72;45.92;93.53;;
77133;Laerm;26708;50.304;19.028;2023-01-30T09:21:08;57.63;44.54;78.27;;
77133;Laerm;26708;50.304;19.028;2023-01-30T09:29:53;57.16;45.49;68.82;;
77133;Laerm;26708;50.304;19.028;2023-01-30T09:32:23;56.77;44.74;69.98;;
77133;Laerm;26708;50.304;19.028;2023-01-30T09:35:08;58.45;46.05;71.36;;
77133;Laerm;26708;50.304;19.028;2023-01-30T09:41:44;59.58;50.96;77.12;;
77133;Laerm;26708;50.304;19.028;2023-01-30T09:46:52;57.52;49.52;70.10;;
77133;Laerm;26708;50.304;19.028;2023-01-30T09:52:31;57.07;46.69;69.74;;
77133;Laerm;26708;50.304;19.028;2023-01-30T09:55:26;57.08;45.83;72.43;;
77133;Laerm;26708;50.304;19.028;2023-01-30T09:57:35;57.66;47.07;75.36;;
77133;Laerm;26708;50.304;19.028;2023-01-30T09:59:54;56.41;46.17;70.78;;
77133;Laerm;26708;50.304;19.028;2023-01-30T10:02:37;55.15;44.58;66.49;;
77133;Laerm;26708;50.304;19.028;2023-01-30T10:04:49;59.38;46.63;72.36;;
77133;Laerm;26708;50.304;19.028;2023-01-30T10:07:16;57.91;46.68;73.80;;
77133;Laerm;26708;50.304;19.028;2023-01-30T10:09:39;57.53;46.40;66.80;;
77133;Laerm;26708;50.304;19.028;2023-01-30T10:15:06;57.43;44.71;69.45;;
77133;Laerm;26708;50.304;19.028;2023-01-30T10:17:43;58.45;45.76;73.69;;
77133;Laerm;26708;50.304;19.028;2023-01-30T10:20:23;56.56;44.98;70.43;;
77133;Laerm;26708;50.304;19.028;2023-01-30T10:22:57;58.74;46.26;72.11;;
77133;Laerm;26708;50.304;19.028;2023-01-30T10:37:16;53.89;44.48;65.80;;
77133;Laerm;26708;50.304;19.028;2023-01-30T10:39:36;56.34;45.69;67.20;;
77133;Laerm;26708;50.304;19.028;2023-01-30T10:44:33;58.25;45.63;68.96;;
77133;Laerm;26708;50.304;19.028;2023-01-30T10:49:26;58.10;44.90;67.64;;
77133;Laerm;26708;50.304;19.028;2023-01-30T10:54:57;57.56;44.35;72.08;;
77133;Laerm;26708;50.304;19.028;2023-01-30T10:57:19;57.14;45.65;68.96;;
77133;Laerm;26708;50.304;19.028;2023-01-30T10:59:53;57.36;45.96;69.51;;
77133;Laerm;26708;50.304;19.028;2023-01-30T11:02:22;59.47;47.54;71.73;;
77133;Laerm;26708;50.304;19.028;2023-01-30T11:04:50;56.75;46.40;67.94;;
77133;Laerm;26708;50.304;19.028;2023-01-30T11:06:59;59.35;49.08;68.90;;
77133;Laerm;26708;50.304;19.028;2023-01-30T11:09:05;59.81;46.60;71.72;;
77133;Laerm;26708;50.304;19.028;2023-01-30T11:11:27;56.07;46.03;70.22;;
77133;Laerm;26708;50.304;19.028;2023-01-30T11:13:38;55.89;44.21;66.49;;
77133;Laerm;26708;50.304;19.028;2023-01-30T11:15:47;56.08;44.98;67.89;;
77133;Laerm;26708;50.304;19.028;2023-01-30T11:18:05;57.99;44.87;67.76;;
77133;Laerm;26708;50.304;19.028;2023-01-30T11:20:16;54.89;45.44;68.22;;
77133;Laerm;26708;50.304;19.028;2023-01-30T11:22:24;58.31;46.36;68.82;;
77133;Laerm;26708;50.304;19.028;2023-01-30T11:24:39;56.64;45.45;67.53;;
77133;Laerm;26708;50.304;19.028;2023-01-30T11:26:48;57.35;45.35;71.34;;
77133;Laerm;26708;50.304;19.028;2023-01-30T11:28:53;58.18;45.65;68.99;;
77133;Laerm;26708;50.304;19.028;2023-01-30T11:31:00;57.18;46.14;68.24;;
77133;Laerm;26708;50.304;19.028;2023-01-30T11:33:14;56.41;44.57;70.82;;
77133;Laerm;26708;50.304;19.028;2023-01-30T11:35:27;57.07;44.48;66.79;;
77133;Laerm;26708;50.304;19.028;2023-01-30T11:37:38;57.98;45.02;68.67;;
77133;Laerm;26708;50.304;19.028;2023-01-30T11:39:53;55.86;45.56;67.29;;
77133;Laerm;26708;50.304;19.028;2023-01-30T11:42:10;57.68;48.00;68.61;;
77133;Laerm;26708;50.304;19.028;2023-01-30T11:44:34;56.12;46.50;65.95;;
77133;Laerm;26708;50.304;19.028;2023-01-30T11:46:42;56.35;45.47;67.67;;
77133;Laerm;26708;50.304;19.028;2023-01-30T11:48:54;57.04;46.56;70.43;;
77133;Laerm;26708;50.304;19.028;2023-01-30T11:51:05;56.88;44.97;67.85;;
77133;Laerm;26708;50.304;19.028;2023-01-30T11:53:27;54.72;45.28;65.91;;
77133;Laerm;26708;50.304;19.028;2023-01-30T11:55:37;58.71;45.81;73.92;;
77133;Laerm;26708;50.304;19.028;2023-01-30T11:57:50;55.90;45.42;69.24;;
77133;Laerm;26708;50.304;19.028;2023-01-30T12:00:00;56.62;44.53;71.51;;
77133;Laerm;26708;50.304;19.028;2023-01-30T12:02:19;56.51;45.18;68.89;;
77133;Laerm;26708;50.304;19.028;2023-01-30T12:04:27;58.12;46.02;67.87;;
77133;Laerm;26708;50.304;19.028;2023-01-30T12:06:35;56.60;45.42;66.03;;
77133;Laerm;26708;50.304;19.028;2023-01-30T12:08:41;61.58;45.19;76.79;;
77133;Laerm;26708;50.304;19.028;2023-01-30T12:10:51;62.91;44.63;74.70;;
77133;Laerm;26708;50.304;19.028;2023-01-30T12:19:16;60.44;44.81;72.97;;
77133;Laerm;26708;50.304;19.028;2023-01-30T12:21:44;61.57;45.03;74.32;;
77133;Laerm;26708;50.304;19.028;2023-01-30T12:24:10;59.57;44.26;74.83;;
77133;Laerm;26708;50.304;19.028;2023-01-30T12:26:30;61.00;44.30;72.41;;
77133;Laerm;26708;50.304;19.028;2023-01-30T12:28:55;59.49;44.69;70.19;;
77133;Laerm;26708;50.304;19.028;2023-01-30T12:31:18;60.48;45.88;73.24;;
77133;Laerm;26708;50.304;19.028;2023-01-30T12:33:42;60.89;44.48;76.52;;
77133;Laerm;26708;50.304;19.028;2023-01-30T12:36:07;61.25;43.40;73.34;;
77133;Laerm;26708;50.304;19.028;2023-01-30T12:39:07;58.55;45.19;75.10;;
77133;Laerm;26708;50.304;19.028;2023-01-30T12:41:52;61.66;44.88;78.32;;
77133;Laerm;26708;50.304;19.028;2023-01-30T12:44:25;55.44;43.02;70.52;;
77133;Laerm;26708;50.304;19.028;2023-01-30T12:46:56;53.73;41.56;68.97;;
77133;Laerm;26708;50.304;19.028;2023-01-30T12:49:30;55.86;42.57;70.16;;
77133;Laerm;26708;50.304;19.028;2023-01-30T12:52:06;57.58;42.54;69.92;;
77133;Laerm;26708;50.304;19.028;2023-01-30T12:54:39;58.80;42.06;70.12;;
77133;Laerm;26708;50.304;19.028;2023-01-30T12:57:01;60.16;44.00;76.39;;
77133;Laerm;26708;50.304;19.028;2023-01-30T12:59:20;61.99;43.09;76.01;;
77133;Laerm;26708;50.304;19.028;2023-01-30T13:01:49;63.23;43.87;75.39;;
77133;Laerm;26708;50.304;19.028;2023-01-30T13:04:11;62.09;42.79;75.70;;
77133;Laerm;26708;50.304;19.028;2023-01-30T13:06:58;62.01;42.44;74.98;;
77133;Laerm;26708;50.304;19.028;2023-01-30T13:09:37;59.66;42.38;75.68;;
77133;Laerm;26708;50.304;19.028;2023-01-30T13:12:00;61.35;43.93;73.00;;
77133;Laerm;26708;50.304;19.028;2023-01-30T13:14:23;63.67;45.25;73.25;;
77133;Laerm;26708;50.304;19.028;2023-01-30T13:16:48;60.47;48.12;71.38;;
77133;Laerm;26708;50.304;19.028;2023-01-30T13:19:10;61.55;46.83;75.64;;
77133;Laerm;26708;50.304;19.028;2023-01-30T13:21:27;61.31;44.46;82.64;;
77133;Laerm;26708;50.304;19.028;2023-01-30T13:23:56;62.93;45.71;75.10;;
77133;Laerm;26708;50.304;19.028;2023-01-30T13:26:10;62.38;43.99;73.02;;
77133;Laerm;26708;50.304;19.028;2023-01-30T13:28:43;63.70;46.02;76.69;;
77133;Laerm;26708;50.304;19.028;2023-01-30T13:30:52;64.97;48.58;74.20;;
77133;Laerm;26708;50.304;19.028;2023-01-30T13:33:09;63.86;45.29;73.88;;
77133;Laerm;26708;50.304;19.028;2023-01-30T13:35:25;60.22;45.78;70.82;;
77133;Laerm;26708;50.304;19.028;2023-01-30T13:37:36;62.02;44.71;72.82;;
77133;Laerm;26708;50.304;19.028;2023-01-30T13:39:55;61.76;45.19;72.91;;
77133;Laerm;26708;50.304;19.028;2023-01-30T13:42:21;59.50;44.77;76.66;;
77133;Laerm;26708;50.304;19.028;2023-01-30T13:44:45;65.11;47.05;76.72;;
77133;Laerm;26708;50.304;19.028;2023-01-30T13:46:56;61.53;44.52;84.17;;
77133;Laerm;26708;50.304;19.028;2023-01-30T13:49:19;64.26;46.71;76.17;;
77133;Laerm;26708;50.304;19.028;2023-01-30T13:51:43;63.34;47.23;73.51;;
77133;Laerm;26708;50.304;19.028;2023-01-30T13:54:01;61.42;45.86;72.30;;
77133;Laerm;26708;50.304;19.028;2023-01-30T13:56:23;63.48;46.11;74.19;;
77133;Laerm;26708;50.304;19.028;2023-01-30T13:58:53;62.83;47.64;72.87;;
77133;Laerm;26708;50.304;19.028;2023-01-30T14:01:02;62.18;45.66;73.81;;
77133;Laerm;26708;50.304;19.028;2023-01-30T14:03:31;63.06;48.72;73.74;;
77133;Laerm;26708;50.304;19.028;2023-01-30T14:06:11;60.60;46.85;72.40;;
77133;Laerm;26708;50.304;19.028;2023-01-30T14:08:21;60.71;45.89;72.93;;
77133;Laerm;26708;50.304;19.028;2023-01-30T14:10:27;57.70;45.63;71.90;;
77133;Laerm;26708;50.304;19.028;2023-01-30T14:12:43;61.54;45.33;73.13;;
77133;Laerm;26708;50.304;19.028;2023-01-30T14:15:02;61.16;44.80;74.59;;
77133;Laerm;26708;50.304;19.028;2023-01-30T14:17:12;60.49;43.25;73.43;;
77133;Laerm;26708;50.304;19.028;2023-01-30T14:19:33;62.42;45.44;71.90;;
77133;Laerm;26708;50.304;19.028;2023-01-30T14:21:53;61.88;44.51;73.02;;
77133;Laerm;26708;50.304;19.028;2023-01-30T14:24:02;62.33;45.37;72.75;;
77133;Laerm;26708;50.304;19.028;2023-01-30T14:26:07;61.20;47.29;72.48;;
77133;Laerm;26708;50.304;19.028;2023-01-30T14:28:49;62.20;46.28;74.35;;
77133;Laerm;26708;50.304;19.028;2023-01-30T14:30:58;61.19;45.78;73.04;;
77133;Laerm;26708;50.304;19.028;2023-01-30T14:33:31;60.34;47.21;72.18;;
77133;Laerm;26708;50.304;19.028;2023-01-30T14:35:37;59.86;45.93;70.50;;
77133;Laerm;26708;50.304;19.028;2023-01-30T14:37:49;60.55;45.55;70.81;;
77133;Laerm;26708;50.304;19.028;2023-01-30T14:39:56;61.66;47.20;73.58;;